sensor_id;sensor_type;location;lat;lon;timestamp;P1;durP1;ratioP1;P2;durP2;ratioP2
18290;SDS011;9271;48.590;8.866;2023-02-01T00:02:00;6.10;;;5.10;;
18290;SDS011;9271;48.590;8.866;2023-02-01T00:04:26;6.50;;;5.27;;
18290;SDS011;9271;48.590;8.866;2023-02-01T00:06:53;5.73;;;5.10;;
18290;SDS011;9271;48.590;8.866;2023-02-01T00:09:20;6.53;;;5.30;;
18290;SDS011;9271;48.590;8.866;2023-02-01T00:11:47;8.27;;;4.80;;
18290;SDS011;9271;48.590;8.866;2023-02-01T00:14:15;5.47;;;4.97;;
18290;SDS011;9271;48.590;8.866;2023-02-01T00:16:42;5.93;;;4.27;;
18290;SDS011;9271;48.590;8.866;2023-02-01T00:19:10;5.00;;;4.57;;
18290;SDS011;9271;48.590;8.866;2023-02-01T00:21:38;6.00;;;5.40;;
18290;SDS011;9271;48.590;8.866;2023-02-01T00:24:06;5.00;;;4.50;;
18290;SDS011;9271;48.590;8.866;2023-02-01T00:26:33;5.33;;;4.70;;
18290;SDS011;9271;48.590;8.866;2023-02-01T00:29:03;10.63;;;5.40;;
18290;SDS011;9271;48.590;8.866;2023-02-01T00:31:33;5.37;;;4.40;;
18290;SDS011;9271;48.590;8.866;2023-02-01T00:33:59;5.43;;;4.77;;
18290;SDS011;9271;48.590;8.866;2023-02-01T00:36:26;6.67;;;4.27;;
18290;SDS011;9271;48.590;8.866;2023-02-01T00:38:54;5.90;;;4.43;;
18290;SDS011;9271;48.590;8.866;2023-02-01T00:41:21;5.50;;;4.83;;
18290;SDS011;9271;48.590;8.866;2023-02-01T00:43:48;5.40;;;4.90;;
18290;SDS011;9271;48.590;8.866;2023-02-01T00:46:16;4.83;;;4.33;;
18290;SDS011;9271;48.590;8.866;2023-02-01T00:48:45;5.47;;;4.73;;
18290;SDS011;9271;48.590;8.866;2023-02-01T00:51:12;5.27;;;4.67;;
18290;SDS011;9271;48.590;8.866;2023-02-01T00:53:40;5.73;;;5.13;;
18290;SDS011;9271;48.590;8.866;2023-02-01T00:56:08;5.83;;;3.93;;
18290;SDS011;9271;48.590;8.866;2023-02-01T00:58:35;4.70;;;4.20;;
18290;SDS011;9271;48.590;8.866;2023-02-01T01:01:02;4.30;;;3.90;;
18290;SDS011;9271;48.590;8.866;2023-02-01T01:03:31;4.50;;;4.10;;
18290;SDS011;9271;48.590;8.866;2023-02-01T01:06:00;4.73;;;3.90;;
18290;SDS011;9271;48.590;8.866;2023-02-01T01:08:28;5.47;;;4.20;;
18290;SDS011;9271;48.590;8.866;2023-02-01T01:10:55;4.70;;;4.10;;
18290;SDS011;9271;48.590;8.866;2023-02-01T01:13:21;4.20;;;3.80;;
18290;SDS011;9271;48.590;8.866;2023-02-01T01:15:48;4.53;;;4.13;;
18290;SDS011;9271;48.590;8.866;2023-02-01T01:18:15;4.77;;;4.23;;
18290;SDS011;9271;48.590;8.866;2023-02-01T01:20:41;5.87;;;4.33;;
18290;SDS011;9271;48.590;8.866;2023-02-01T01:23:09;4.67;;;4.23;;
18290;SDS011;9271;48.590;8.866;2023-02-01T01:25:37;5.60;;;4.80;;
18290;SDS011;9271;48.590;8.866;2023-02-01T01:28:04;5.73;;;4.40;;
18290;SDS011;9271;48.590;8.866;2023-02-01T01:30:32;4.90;;;4.40;;
18290;SDS011;9271;48.590;8.866;2023-02-01T01:32:59;6.67;;;4.73;;
18290;SDS011;9271;48.590;8.866;2023-02-01T01:35:26;5.13;;;4.63;;
18290;SDS011;9271;48.590;8.866;2023-02-01T01:37:55;5.13;;;4.63;;
18290;SDS011;9271;48.590;8.866;2023-02-01T01:40:23;5.27;;;4.77;;
18290;SDS011;9271;48.590;8.866;2023-02-01T01:42:49;7.67;;;4.60;;
18290;SDS011;9271;48.590;8.866;2023-02-01T01:45:20;4.40;;;4.00;;
18290;SDS011;9271;48.590;8.866;2023-02-01T01:47:51;4.27;;;3.90;;
18290;SDS011;9271;48.590;8.866;2023-02-01T01:50:20;4.03;;;3.67;;
18290;SDS011;9271;48.590;8.866;2023-02-01T01:52:51;3.87;;;3.57;;
18290;SDS011;9271;48.590;8.866;2023-02-01T01:55:22;4.40;;;4.00;;
18290;SDS011;9271;48.590;8.866;2023-02-01T01:57:52;4.30;;;3.90;;
18290;SDS011;9271;48.590;8.866;2023-02-01T02:00:23;4.30;;;3.90;;
18290;SDS011;9271;48.590;8.866;2023-02-01T02:02:52;4.00;;;3.70;;
18290;SDS011;9271;48.590;8.866;2023-02-01T02:05:23;3.70;;;3.40;;
18290;SDS011;9271;48.590;8.866;2023-02-01T02:07:50;3.93;;;3.40;;
18290;SDS011;9271;48.590;8.866;2023-02-01T02:10:19;3.57;;;3.27;;
18290;SDS011;9271;48.590;8.866;2023-02-01T02:13:07;3.83;;;3.53;;
18290;SDS011;9271;48.590;8.866;2023-02-01T02:15:35;3.53;;;3.20;;
18290;SDS011;9271;48.590;8.866;2023-02-01T02:18:08;3.97;;;3.53;;
18290;SDS011;9271;48.590;8.866;2023-02-01T02:20:45;4.20;;;3.80;;
18290;SDS011;9271;48.590;8.866;2023-02-01T02:26:35;3.83;;;3.43;;
18290;SDS011;9271;48.590;8.866;2023-02-01T02:29:21;3.57;;;3.27;;
18290;SDS011;9271;48.590;8.866;2023-02-01T02:32:09;4.23;;;3.73;;
18290;SDS011;9271;48.590;8.866;2023-02-01T02:34:58;3.93;;;3.53;;
18290;SDS011;9271;48.590;8.866;2023-02-01T02:37:32;4.10;;;3.70;;
18290;SDS011;9271;48.590;8.866;2023-02-01T02:40:05;4.00;;;3.70;;
18290;SDS011;9271;48.590;8.866;2023-02-01T02:42:40;4.13;;;3.73;;
18290;SDS011;9271;48.590;8.866;2023-02-01T02:45:34;4.70;;;4.20;;
18290;SDS011;9271;48.590;8.866;2023-02-01T02:48:25;4.50;;;4.00;;
18290;SDS011;9271;48.590;8.866;2023-02-01T02:50:58;4.10;;;3.70;;
18290;SDS011;9271;48.590;8.866;2023-02-01T02:53:48;3.97;;;3.60;;
18290;SDS011;9271;48.590;8.866;2023-02-01T02:56:39;3.90;;;3.60;;
18290;SDS011;9271;48.590;8.866;2023-02-01T02:59:24;3.80;;;3.50;;
18290;SDS011;9271;48.590;8.866;2023-02-01T03:02:10;3.83;;;3.53;;
18290;SDS011;9271;48.590;8.866;2023-02-01T03:04:56;3.90;;;3.60;;
18290;SDS011;9271;48.590;8.866;2023-02-01T03:10:33;3.50;;;3.20;;
18290;SDS011;9271;48.590;8.866;2023-02-01T03:13:07;3.83;;;3.43;;
18290;SDS011;9271;48.590;8.866;2023-02-01T03:15:38;3.43;;;3.17;;
18290;SDS011;9271;48.590;8.866;2023-02-01T03:18:11;4.17;;;3.77;;
18290;SDS011;9271;48.590;8.866;2023-02-01T03:20:43;3.60;;;3.30;;
18290;SDS011;9271;48.590;8.866;2023-02-01T03:23:14;3.30;;;3.00;;
18290;SDS011;9271;48.590;8.866;2023-02-01T03:25:44;3.53;;;3.23;;
18290;SDS011;9271;48.590;8.866;2023-02-01T03:28:13;3.47;;;3.17;;
18290;SDS011;9271;48.590;8.866;2023-02-01T03:30:46;3.60;;;3.30;;
18290;SDS011;9271;48.590;8.866;2023-02-01T03:33:16;3.20;;;3.00;;
18290;SDS011;9271;48.590;8.866;2023-02-01T03:35:49;3.60;;;3.30;;
18290;SDS011;9271;48.590;8.866;2023-02-01T03:38:24;4.07;;;3.00;;
18290;SDS011;9271;48.590;8.866;2023-02-01T03:40:56;3.30;;;3.00;;
18290;SDS011;9271;48.590;8.866;2023-02-01T03:43:29;3.00;;;2.80;;
18290;SDS011;9271;48.590;8.866;2023-02-01T03:46:04;3.17;;;2.97;;
18290;SDS011;9271;48.590;8.866;2023-02-01T03:48:38;3.13;;;2.90;;
18290;SDS011;9271;48.590;8.866;2023-02-01T03:51:05;3.33;;;3.03;;
18290;SDS011;9271;48.590;8.866;2023-02-01T03:53:36;2.70;;;2.50;;
18290;SDS011;9271;48.590;8.866;2023-02-01T03:56:06;2.80;;;2.60;;
18290;SDS011;9271;48.590;8.866;2023-02-01T03:58:36;2.70;;;2.50;;
18290;SDS011;9271;48.590;8.866;2023-02-01T04:01:03;2.70;;;2.50;;
18290;SDS011;9271;48.590;8.866;2023-02-01T04:03:30;2.30;;;2.10;;
18290;SDS011;9271;48.590;8.866;2023-02-01T04:05:57;2.90;;;2.70;;
18290;SDS011;9271;48.590;8.866;2023-02-01T04:08:23;2.40;;;2.23;;
18290;SDS011;9271;48.590;8.866;2023-02-01T04:10:51;2.70;;;2.50;;
18290;SDS011;9271;48.590;8.866;2023-02-01T04:13:18;3.00;;;2.50;;
18290;SDS011;9271;48.590;8.866;2023-02-01T04:15:46;2.70;;;2.50;;
18290;SDS011;9271;48.590;8.866;2023-02-01T04:18:14;2.63;;;2.43;;
18290;SDS011;9271;48.590;8.866;2023-02-01T04:20:41;2.77;;;2.57;;
18290;SDS011;9271;48.590;8.866;2023-02-01T04:23:08;2.40;;;2.30;;
18290;SDS011;9271;48.590;8.866;2023-02-01T04:25:35;2.37;;;2.23;;
18290;SDS011;9271;48.590;8.866;2023-02-01T04:28:03;2.57;;;2.37;;
18290;SDS011;9271;48.590;8.866;2023-02-01T04:30:31;4.30;;;3.70;;
18290;SDS011;9271;48.590;8.866;2023-02-01T04:32:58;5.53;;;4.77;;
18290;SDS011;9271;48.590;8.866;2023-02-01T04:35:25;3.40;;;3.10;;
18290;SDS011;9271;48.590;8.866;2023-02-01T04:37:51;2.60;;;2.40;;
18290;SDS011;9271;48.590;8.866;2023-02-01T04:40:18;3.83;;;3.53;;
18290;SDS011;9271;48.590;8.866;2023-02-01T04:42:45;2.33;;;2.23;;
18290;SDS011;9271;48.590;8.866;2023-02-01T04:45:12;2.30;;;2.10;;
18290;SDS011;9271;48.590;8.866;2023-02-01T04:47:39;2.20;;;2.00;;
18290;SDS011;9271;48.590;8.866;2023-02-01T04:50:06;2.10;;;2.00;;
18290;SDS011;9271;48.590;8.866;2023-02-01T04:52:35;1.80;;;1.70;;
18290;SDS011;9271;48.590;8.866;2023-02-01T04:55:02;2.00;;;1.90;;
18290;SDS011;9271;48.590;8.866;2023-02-01T04:57:29;1.93;;;1.80;;
18290;SDS011;9271;48.590;8.866;2023-02-01T04:59:56;1.80;;;1.70;;
18290;SDS011;9271;48.590;8.866;2023-02-01T05:02:24;1.97;;;1.80;;
18290;SDS011;9271;48.590;8.866;2023-02-01T05:04:51;2.03;;;1.83;;
18290;SDS011;9271;48.590;8.866;2023-02-01T05:07:17;1.90;;;1.80;;
18290;SDS011;9271;48.590;8.866;2023-02-01T05:09:44;1.90;;;1.80;;
18290;SDS011;9271;48.590;8.866;2023-02-01T05:12:10;1.80;;;1.70;;
18290;SDS011;9271;48.590;8.866;2023-02-01T05:14:55;1.77;;;1.67;;
18290;SDS011;9271;48.590;8.866;2023-02-01T05:17:22;2.00;;;1.60;;
18290;SDS011;9271;48.590;8.866;2023-02-01T05:19:50;1.80;;;1.70;;
18290;SDS011;9271;48.590;8.866;2023-02-01T05:22:17;2.43;;;2.00;;
18290;SDS011;9271;48.590;8.866;2023-02-01T05:24:44;1.70;;;1.60;;
18290;SDS011;9271;48.590;8.866;2023-02-01T05:27:10;2.23;;;2.03;;
18290;SDS011;9271;48.590;8.866;2023-02-01T05:29:37;1.90;;;1.80;;
18290;SDS011;9271;48.590;8.866;2023-02-01T05:32:04;2.90;;;2.10;;
18290;SDS011;9271;48.590;8.866;2023-02-01T05:34:31;2.60;;;2.33;;
18290;SDS011;9271;48.590;8.866;2023-02-01T05:36:59;2.83;;;1.97;;
18290;SDS011;9271;48.590;8.866;2023-02-01T05:39:26;2.30;;;2.10;;
18290;SDS011;9271;48.590;8.866;2023-02-01T05:41:53;2.63;;;2.43;;
18290;SDS011;9271;48.590;8.866;2023-02-01T05:44:19;2.43;;;2.23;;
18290;SDS011;9271;48.590;8.866;2023-02-01T05:46:46;2.10;;;2.00;;
18290;SDS011;9271;48.590;8.866;2023-02-01T05:49:13;2.17;;;2.07;;
18290;SDS011;9271;48.590;8.866;2023-02-01T05:51:40;2.20;;;2.07;;
18290;SDS011;9271;48.590;8.866;2023-02-01T05:54:09;2.20;;;2.10;;
18290;SDS011;9271;48.590;8.866;2023-02-01T05:56:36;2.10;;;2.00;;
18290;SDS011;9271;48.590;8.866;2023-02-01T05:59:03;2.13;;;2.03;;
18290;SDS011;9271;48.590;8.866;2023-02-01T06:01:30;2.20;;;2.10;;
18290;SDS011;9271;48.590;8.866;2023-02-01T06:03:56;2.60;;;2.40;;
18290;SDS011;9271;48.590;8.866;2023-02-01T06:06:23;3.20;;;2.63;;
18290;SDS011;9271;48.590;8.866;2023-02-01T06:08:50;2.40;;;2.03;;
18290;SDS011;9271;48.590;8.866;2023-02-01T06:11:18;2.50;;;2.30;;
18290;SDS011;9271;48.590;8.866;2023-02-01T06:13:45;2.30;;;2.13;;
18290;SDS011;9271;48.590;8.866;2023-02-01T06:16:12;3.97;;;2.33;;
18290;SDS011;9271;48.590;8.866;2023-02-01T06:18:40;3.73;;;2.43;;
18290;SDS011;9271;48.590;8.866;2023-02-01T06:21:08;3.63;;;2.67;;
18290;SDS011;9271;48.590;8.866;2023-02-01T06:23:35;1.90;;;1.80;;
18290;SDS011;9271;48.590;8.866;2023-02-01T06:26:02;2.20;;;2.10;;
18290;SDS011;9271;48.590;8.866;2023-02-01T06:28:31;2.77;;;2.00;;
18290;SDS011;9271;48.590;8.866;2023-02-01T06:31:08;2.33;;;2.23;;
18290;SDS011;9271;48.590;8.866;2023-02-01T06:33:35;2.70;;;2.50;;
18290;SDS011;9271;48.590;8.866;2023-02-01T06:36:03;4.10;;;2.30;;
18290;SDS011;9271;48.590;8.866;2023-02-01T06:38:32;3.90;;;2.80;;
18290;SDS011;9271;48.590;8.866;2023-02-01T06:40:59;3.33;;;2.57;;
18290;SDS011;9271;48.590;8.866;2023-02-01T06:43:27;2.67;;;2.20;;
18290;SDS011;9271;48.590;8.866;2023-02-01T06:46:00;3.10;;;2.90;;
18290;SDS011;9271;48.590;8.866;2023-02-01T06:48:28;3.17;;;2.70;;
18290;SDS011;9271;48.590;8.866;2023-02-01T06:50:55;4.33;;;3.23;;
18290;SDS011;9271;48.590;8.866;2023-02-01T06:53:23;5.80;;;3.27;;
18290;SDS011;9271;48.590;8.866;2023-02-01T06:55:53;5.20;;;4.20;;
18290;SDS011;9271;48.590;8.866;2023-02-01T06:58:21;2.47;;;2.27;;
18290;SDS011;9271;48.590;8.866;2023-02-01T07:00:47;2.60;;;2.40;;
18290;SDS011;9271;48.590;8.866;2023-02-01T07:03:16;3.13;;;2.83;;
18290;SDS011;9271;48.590;8.866;2023-02-01T07:05:43;3.57;;;3.23;;
18290;SDS011;9271;48.590;8.866;2023-02-01T07:08:10;3.73;;;2.90;;
18290;SDS011;9271;48.590;8.866;2023-02-01T07:11:03;2.60;;;2.40;;
18290;SDS011;9271;48.590;8.866;2023-02-01T07:13:30;3.47;;;2.17;;
18290;SDS011;9271;48.590;8.866;2023-02-01T07:15:57;2.10;;;1.90;;
18290;SDS011;9271;48.590;8.866;2023-02-01T07:18:25;3.73;;;2.90;;
18290;SDS011;9271;48.590;8.866;2023-02-01T07:20:52;2.60;;;2.40;;
18290;SDS011;9271;48.590;8.866;2023-02-01T07:23:19;2.60;;;2.40;;
18290;SDS011;9271;48.590;8.866;2023-02-01T07:25:45;2.03;;;1.87;;
18290;SDS011;9271;48.590;8.866;2023-02-01T07:28:13;2.27;;;2.17;;
18290;SDS011;9271;48.590;8.866;2023-02-01T07:30:40;2.10;;;2.00;;
18290;SDS011;9271;48.590;8.866;2023-02-01T07:33:07;2.40;;;1.80;;
18290;SDS011;9271;48.590;8.866;2023-02-01T07:35:34;2.33;;;1.97;;
18290;SDS011;9271;48.590;8.866;2023-02-01T07:38:00;2.57;;;2.10;;
18290;SDS011;9271;48.590;8.866;2023-02-01T07:40:27;2.50;;;1.80;;
18290;SDS011;9271;48.590;8.866;2023-02-01T07:42:55;2.10;;;2.00;;
18290;SDS011;9271;48.590;8.866;2023-02-01T07:45:23;2.00;;;1.90;;
18290;SDS011;9271;48.590;8.866;2023-02-01T07:47:51;2.47;;;1.90;;
18290;SDS011;9271;48.590;8.866;2023-02-01T07:50:19;2.57;;;2.37;;
18290;SDS011;9271;48.590;8.866;2023-02-01T07:52:45;3.10;;;2.20;;
18290;SDS011;9271;48.590;8.866;2023-02-01T07:55:12;4.77;;;2.20;;
18290;SDS011;9271;48.590;8.866;2023-02-01T07:57:39;2.27;;;2.07;;
18290;SDS011;9271;48.590;8.866;2023-02-01T08:00:06;7.07;;;4.13;;
18290;SDS011;9271;48.590;8.866;2023-02-01T08:02:52;4.77;;;2.93;;
18290;SDS011;9271;48.590;8.866;2023-02-01T08:05:19;3.07;;;2.23;;
18290;SDS011;9271;48.590;8.866;2023-02-01T08:07:48;2.13;;;1.90;;
18290;SDS011;9271;48.590;8.866;2023-02-01T08:10:15;2.67;;;2.47;;
18290;SDS011;9271;48.590;8.866;2023-02-01T08:12:42;3.07;;;2.10;;
18290;SDS011;9271;48.590;8.866;2023-02-01T08:15:12;4.03;;;2.83;;
18290;SDS011;9271;48.590;8.866;2023-02-01T08:17:39;2.97;;;2.10;;
18290;SDS011;9271;48.590;8.866;2023-02-01T08:20:08;7.37;;;2.20;;
18290;SDS011;9271;48.590;8.866;2023-02-01T08:22:36;3.63;;;2.20;;
18290;SDS011;9271;48.590;8.866;2023-02-01T08:25:03;9.77;;;3.73;;
18290;SDS011;9271;48.590;8.866;2023-02-01T08:27:32;3.30;;;2.03;;
18290;SDS011;9271;48.590;8.866;2023-02-01T08:29:58;5.10;;;2.27;;
18290;SDS011;9271;48.590;8.866;2023-02-01T08:32:25;2.13;;;1.90;;
18290;SDS011;9271;48.590;8.866;2023-02-01T08:34:52;4.17;;;1.77;;
18290;SDS011;9271;48.590;8.866;2023-02-01T08:37:20;4.93;;;1.90;;
18290;SDS011;9271;48.590;8.866;2023-02-01T08:39:47;3.07;;;1.63;;
18290;SDS011;9271;48.590;8.866;2023-02-01T08:42:15;2.83;;;1.90;;
18290;SDS011;9271;48.590;8.866;2023-02-01T08:45:00;3.43;;;1.87;;
18290;SDS011;9271;48.590;8.866;2023-02-01T08:47:27;11.10;;;2.20;;
18290;SDS011;9271;48.590;8.866;2023-02-01T08:49:54;3.50;;;2.03;;
18290;SDS011;9271;48.590;8.866;2023-02-01T08:52:22;3.87;;;2.33;;
18290;SDS011;9271;48.590;8.866;2023-02-01T08:54:49;3.87;;;1.80;;
18290;SDS011;9271;48.590;8.866;2023-02-01T08:57:16;6.60;;;1.90;;
18290;SDS011;9271;48.590;8.866;2023-02-01T08:59:42;4.63;;;2.27;;
18290;SDS011;9271;48.590;8.866;2023-02-01T09:02:11;7.33;;;2.30;;
18290;SDS011;9271;48.590;8.866;2023-02-01T09:04:39;3.53;;;2.10;;
18290;SDS011;9271;48.590;8.866;2023-02-01T09:07:06;3.43;;;2.13;;
18290;SDS011;9271;48.590;8.866;2023-02-01T09:09:34;2.60;;;1.57;;
18290;SDS011;9271;48.590;8.866;2023-02-01T09:12:01;3.03;;;1.73;;
18290;SDS011;9271;48.590;8.866;2023-02-01T09:14:28;3.00;;;1.60;;
18290;SDS011;9271;48.590;8.866;2023-02-01T09:16:55;1.90;;;1.70;;
18290;SDS011;9271;48.590;8.866;2023-02-01T09:19:22;4.53;;;1.80;;
18290;SDS011;9271;48.590;8.866;2023-02-01T09:21:49;5.50;;;1.80;;
18290;SDS011;9271;48.590;8.866;2023-02-01T09:24:16;4.47;;;1.90;;
18290;SDS011;9271;48.590;8.866;2023-02-01T09:26:44;6.97;;;2.10;;
18290;SDS011;9271;48.590;8.866;2023-02-01T09:29:10;3.30;;;2.00;;
18290;SDS011;9271;48.590;8.866;2023-02-01T09:31:37;7.37;;;2.13;;
18290;SDS011;9271;48.590;8.866;2023-02-01T09:34:04;4.70;;;2.10;;
18290;SDS011;9271;48.590;8.866;2023-02-01T09:36:32;4.40;;;2.40;;
18290;SDS011;9271;48.590;8.866;2023-02-01T09:38:59;5.63;;;2.10;;
18290;SDS011;9271;48.590;8.866;2023-02-01T09:41:30;4.13;;;1.73;;
18290;SDS011;9271;48.590;8.866;2023-02-01T09:44:07;4.53;;;1.90;;
18290;SDS011;9271;48.590;8.866;2023-02-01T09:46:40;5.10;;;1.90;;
18290;SDS011;9271;48.590;8.866;2023-02-01T09:49:10;4.47;;;2.37;;
18290;SDS011;9271;48.590;8.866;2023-02-01T09:51:40;5.57;;;2.10;;
18290;SDS011;9271;48.590;8.866;2023-02-01T09:54:11;4.13;;;1.90;;
18290;SDS011;9271;48.590;8.866;2023-02-01T09:56:44;4.10;;;2.27;;
18290;SDS011;9271;48.590;8.866;2023-02-01T09:59:18;5.30;;;2.43;;
18290;SDS011;9271;48.590;8.866;2023-02-01T10:01:52;4.77;;;2.43;;
18290;SDS011;9271;48.590;8.866;2023-02-01T10:04:19;5.60;;;2.27;;
18290;SDS011;9271;48.590;8.866;2023-02-01T10:06:50;4.17;;;1.83;;
18290;SDS011;9271;48.590;8.866;2023-02-01T10:09:32;4.77;;;1.87;;
18290;SDS011;9271;48.590;8.866;2023-02-01T10:12:20;6.40;;;2.03;;
18290;SDS011;9271;48.590;8.866;2023-02-01T10:15:18;6.07;;;2.10;;
18290;SDS011;9271;48.590;8.866;2023-02-01T10:17:58;5.10;;;2.43;;
18290;SDS011;9271;48.590;8.866;2023-02-01T10:20:41;4.23;;;2.40;;
18290;SDS011;9271;48.590;8.866;2023-02-01T10:23:21;5.97;;;2.17;;
18290;SDS011;9271;48.590;8.866;2023-02-01T10:26:12;4.90;;;1.87;;
18290;SDS011;9271;48.590;8.866;2023-02-01T10:28:44;5.83;;;2.23;;
18290;SDS011;9271;48.590;8.866;2023-02-01T10:31:16;6.30;;;2.53;;
18290;SDS011;9271;48.590;8.866;2023-02-01T10:33:45;6.37;;;2.00;;
18290;SDS011;9271;48.590;8.866;2023-02-01T10:36:15;6.53;;;1.87;;
18290;SDS011;9271;48.590;8.866;2023-02-01T10:38:46;6.47;;;1.80;;
18290;SDS011;9271;48.590;8.866;2023-02-01T10:41:13;5.13;;;2.00;;
18290;SDS011;9271;48.590;8.866;2023-02-01T10:43:42;7.17;;;2.03;;
18290;SDS011;9271;48.590;8.866;2023-02-01T10:46:10;10.03;;;2.33;;
18290;SDS011;9271;48.590;8.866;2023-02-01T10:48:38;6.63;;;2.00;;
18290;SDS011;9271;48.590;8.866;2023-02-01T10:51:06;5.13;;;2.40;;
18290;SDS011;9271;48.590;8.866;2023-02-01T10:53:39;7.07;;;2.00;;
18290;SDS011;9271;48.590;8.866;2023-02-01T10:56:12;7.23;;;1.73;;
18290;SDS011;9271;48.590;8.866;2023-02-01T10:58:43;6.97;;;2.20;;
18290;SDS011;9271;48.590;8.866;2023-02-01T11:01:15;7.40;;;2.13;;
18290;SDS011;9271;48.590;8.866;2023-02-01T11:03:45;4.63;;;2.10;;
18290;SDS011;9271;48.590;8.866;2023-02-01T11:06:24;7.17;;;2.17;;
18290;SDS011;9271;48.590;8.866;2023-02-01T11:08:53;9.20;;;2.20;;
18290;SDS011;9271;48.590;8.866;2023-02-01T11:11:23;7.60;;;2.40;;
18290;SDS011;9271;48.590;8.866;2023-02-01T11:13:54;10.30;;;2.60;;
18290;SDS011;9271;48.590;8.866;2023-02-01T11:16:28;4.33;;;2.03;;
18290;SDS011;9271;48.590;8.866;2023-02-01T11:19:00;6.67;;;2.00;;
18290;SDS011;9271;48.590;8.866;2023-02-01T11:21:27;4.77;;;2.10;;
18290;SDS011;9271;48.590;8.866;2023-02-01T11:23:54;8.00;;;2.10;;
18290;SDS011;9271;48.590;8.866;2023-02-01T11:26:21;5.53;;;1.70;;
18290;SDS011;9271;48.590;8.866;2023-02-01T11:28:53;5.93;;;2.00;;
18290;SDS011;9271;48.590;8.866;2023-02-01T11:31:24;4.70;;;1.87;;
18290;SDS011;9271;48.590;8.866;2023-02-01T11:33:53;4.33;;;1.90;;
18290;SDS011;9271;48.590;8.866;2023-02-01T11:36:26;5.57;;;2.00;;
18290;SDS011;9271;48.590;8.866;2023-02-01T11:39:07;5.63;;;1.80;;
18290;SDS011;9271;48.590;8.866;2023-02-01T11:41:40;7.23;;;2.00;;
18290;SDS011;9271;48.590;8.866;2023-02-01T11:44:15;6.87;;;2.20;;
18290;SDS011;9271;48.590;8.866;2023-02-01T11:46:46;4.63;;;1.77;;
18290;SDS011;9271;48.590;8.866;2023-02-01T11:49:15;3.87;;;1.70;;
18290;SDS011;9271;48.590;8.866;2023-02-01T11:51:50;5.27;;;1.87;;
18290;SDS011;9271;48.590;8.866;2023-02-01T11:54:30;5.43;;;2.10;;
18290;SDS011;9271;48.590;8.866;2023-02-01T11:57:13;4.87;;;2.37;;
18290;SDS011;9271;48.590;8.866;2023-02-01T11:59:58;3.80;;;1.70;;
18290;SDS011;9271;48.590;8.866;2023-02-01T12:02:47;8.17;;;2.00;;
18290;SDS011;9271;48.590;8.866;2023-02-01T12:05:47;9.87;;;1.90;;
18290;SDS011;9271;48.590;8.866;2023-02-01T12:08:32;6.33;;;2.37;;
18290;SDS011;9271;48.590;8.866;2023-02-01T12:11:27;4.47;;;1.80;;
18290;SDS011;9271;48.590;8.866;2023-02-01T12:14:12;8.90;;;1.90;;
18290;SDS011;9271;48.590;8.866;2023-02-01T12:16:50;7.47;;;2.00;;
18290;SDS011;9271;48.590;8.866;2023-02-01T12:19:30;14.03;;;2.20;;
18290;SDS011;9271;48.590;8.866;2023-02-01T12:22:11;10.70;;;2.07;;
18290;SDS011;9271;48.590;8.866;2023-02-01T12:27:55;6.63;;;1.80;;
18290;SDS011;9271;48.590;8.866;2023-02-01T12:30:48;7.17;;;2.00;;
18290;SDS011;9271;48.590;8.866;2023-02-01T12:33:36;9.97;;;2.50;;
18290;SDS011;9271;48.590;8.866;2023-02-01T12:36:16;9.97;;;2.37;;
18290;SDS011;9271;48.590;8.866;2023-02-01T12:38:52;8.00;;;1.97;;
18290;SDS011;9271;48.590;8.866;2023-02-01T12:41:27;8.87;;;2.00;;
18290;SDS011;9271;48.590;8.866;2023-02-01T12:44:02;4.00;;;2.00;;
18290;SDS011;9271;48.590;8.866;2023-02-01T12:46:37;8.07;;;2.53;;
18290;SDS011;9271;48.590;8.866;2023-02-01T12:49:10;5.30;;;2.50;;
18290;SDS011;9271;48.590;8.866;2023-02-01T12:51:42;7.20;;;2.60;;
18290;SDS011;9271;48.590;8.866;2023-02-01T12:54:12;5.67;;;2.13;;
18290;SDS011;9271;48.590;8.866;2023-02-01T12:56:47;10.37;;;2.00;;
18290;SDS011;9271;48.590;8.866;2023-02-01T12:59:19;4.23;;;2.03;;
18290;SDS011;9271;48.590;8.866;2023-02-01T13:01:49;6.57;;;2.47;;
18290;SDS011;9271;48.590;8.866;2023-02-01T13:04:23;10.43;;;2.33;;
18290;SDS011;9271;48.590;8.866;2023-02-01T13:06:53;4.70;;;1.83;;
18290;SDS011;9271;48.590;8.866;2023-02-01T13:09:26;4.20;;;2.30;;
18290;SDS011;9271;48.590;8.866;2023-02-01T13:11:59;8.27;;;2.50;;
18290;SDS011;9271;48.590;8.866;2023-02-01T13:14:33;5.67;;;2.10;;
18290;SDS011;9271;48.590;8.866;2023-02-01T13:17:04;12.13;;;2.30;;
18290;SDS011;9271;48.590;8.866;2023-02-01T13:19:39;4.63;;;1.80;;
18290;SDS011;9271;48.590;8.866;2023-02-01T13:22:11;8.70;;;2.17;;
18290;SDS011;9271;48.590;8.866;2023-02-01T13:24:42;7.20;;;2.10;;
18290;SDS011;9271;48.590;8.866;2023-02-01T13:27:12;5.03;;;1.67;;
18290;SDS011;9271;48.590;8.866;2023-02-01T13:29:44;5.90;;;1.90;;
18290;SDS011;9271;48.590;8.866;2023-02-01T13:32:20;6.93;;;1.90;;
18290;SDS011;9271;48.590;8.866;2023-02-01T13:35:19;4.07;;;1.70;;
18290;SDS011;9271;48.590;8.866;2023-02-01T13:38:07;7.67;;;2.10;;
18290;SDS011;9271;48.590;8.866;2023-02-01T13:40:44;6.33;;;1.90;;
18290;SDS011;9271;48.590;8.866;2023-02-01T13:43:19;4.73;;;2.13;;
18290;SDS011;9271;48.590;8.866;2023-02-01T13:45:49;4.97;;;2.00;;
18290;SDS011;9271;48.590;8.866;2023-02-01T13:48:19;3.63;;;1.80;;
18290;SDS011;9271;48.590;8.866;2023-02-01T13:50:50;10.43;;;2.30;;
18290;SDS011;9271;48.590;8.866;2023-02-01T13:53:21;4.70;;;2.23;;
18290;SDS011;9271;48.590;8.866;2023-02-01T13:55:54;4.70;;;1.93;;
18290;SDS011;9271;48.590;8.866;2023-02-01T13:58:30;7.40;;;1.90;;
18290;SDS011;9271;48.590;8.866;2023-02-01T14:04:01;5.23;;;2.30;;
18290;SDS011;9271;48.590;8.866;2023-02-01T14:06:35;5.07;;;2.40;;
18290;SDS011;9271;48.590;8.866;2023-02-01T14:12:05;4.93;;;1.67;;
18290;SDS011;9271;48.590;8.866;2023-02-01T14:15:22;5.10;;;2.30;;
18290;SDS011;9271;48.590;8.866;2023-02-01T14:17:51;8.30;;;2.40;;
18290;SDS011;9271;48.590;8.866;2023-02-01T14:23:20;5.53;;;2.27;;
18290;SDS011;9271;48.590;8.866;2023-02-01T14:28:46;5.47;;;2.30;;
18290;SDS011;9271;48.590;8.866;2023-02-01T14:34:16;5.80;;;2.20;;
18290;SDS011;9271;48.590;8.866;2023-02-01T14:36:52;10.07;;;2.57;;
18290;SDS011;9271;48.590;8.866;2023-02-01T14:39:25;5.77;;;2.10;;
18290;SDS011;9271;48.590;8.866;2023-02-01T14:41:56;4.87;;;2.17;;
18290;SDS011;9271;48.590;8.866;2023-02-01T14:44:28;12.80;;;2.50;;
18290;SDS011;9271;48.590;8.866;2023-02-01T14:47:04;5.97;;;2.03;;
18290;SDS011;9271;48.590;8.866;2023-02-01T14:49:47;6.83;;;2.00;;
18290;SDS011;9271;48.590;8.866;2023-02-01T14:52:19;8.10;;;2.10;;
18290;SDS011;9271;48.590;8.866;2023-02-01T14:54:49;7.13;;;2.20;;
18290;SDS011;9271;48.590;8.866;2023-02-01T14:57:20;5.70;;;2.20;;
18290;SDS011;9271;48.590;8.866;2023-02-01T14:59:52;5.07;;;2.10;;
18290;SDS011;9271;48.590;8.866;2023-02-01T15:02:26;9.77;;;2.37;;
18290;SDS011;9271;48.590;8.866;2023-02-01T15:04:54;6.37;;;1.90;;
18290;SDS011;9271;48.590;8.866;2023-02-01T15:07:22;7.47;;;2.13;;
18290;SDS011;9271;48.590;8.866;2023-02-01T15:09:50;8.30;;;2.17;;
18290;SDS011;9271;48.590;8.866;2023-02-01T15:12:22;5.57;;;2.13;;
18290;SDS011;9271;48.590;8.866;2023-02-01T15:15:05;4.50;;;1.70;;
18290;SDS011;9271;48.590;8.866;2023-02-01T15:17:39;4.20;;;1.90;;
18290;SDS011;9271;48.590;8.866;2023-02-01T15:20:12;8.83;;;2.23;;
18290;SDS011;9271;48.590;8.866;2023-02-01T15:22:41;5.50;;;2.27;;
18290;SDS011;9271;48.590;8.866;2023-02-01T15:25:17;6.40;;;2.20;;
18290;SDS011;9271;48.590;8.866;2023-02-01T15:27:45;8.70;;;2.10;;
18290;SDS011;9271;48.590;8.866;2023-02-01T15:30:16;6.13;;;2.90;;
18290;SDS011;9271;48.590;8.866;2023-02-01T15:32:46;6.10;;;1.83;;
18290;SDS011;9271;48.590;8.866;2023-02-01T15:40:53;6.67;;;2.37;;
18290;SDS011;9271;48.590;8.866;2023-02-01T15:43:21;7.00;;;2.10;;
18290;SDS011;9271;48.590;8.866;2023-02-01T15:45:48;4.30;;;2.10;;
18290;SDS011;9271;48.590;8.866;2023-02-01T15:48:19;4.57;;;2.13;;
18290;SDS011;9271;48.590;8.866;2023-02-01T15:50:48;7.70;;;2.30;;
18290;SDS011;9271;48.590;8.866;2023-02-01T15:53:18;7.20;;;2.20;;
18290;SDS011;9271;48.590;8.866;2023-02-01T15:55:46;4.97;;;2.33;;